Franklin, Argentina
Current Conditions -  °F | °C
As of 11:00 PM on Sunday 21 Dec 2014 (Local Time) from SADF Reporting Station
Broken Clouds Broken Clouds  
Wind Chill: 64°   Ceiling: 20000
Heat Index: 64°   Visibility: 6mi
Dew Point: 55°   Wind: 6mph
Humidity: 73%   Direction: 340°NNW
Pressure: 29.85"   Gusts: NA
Location:  34.6°S, 59.62°W
Report Text: SADF 220200Z 34005KT 320V110 9999 FEW025 SCT100BKN200 18/13 Q1011
Loading
Personal Weather Stations






























Interactive Weather Map New forecast layout! Learn more

10-Day Weather Forecast

Advertisements
Track Severe Weather on mobile